Airfield :







YOU CAN JOIN US ON...

 
LOGIN :

Register | Disclaimer

   EN    FR    IT 

 









Legend :    VFR   Marginal VFR   IFR   Intensive IFR   Very Intensive IFR
Visi :
Ceiling :
>= 8 km
>= 3000ft
5 to 8 km
1000 to 3000 ft
1500m to 5 km
500 to 1000 ft
800 to 1500m
200 to 500 ft
< 800m
< 200 ft
Symbols :   Thunderstorms  Fog  Heavy snow  Heavy precipitations  Wind > 20 kt






- Airport Elevation : 90 ft
- IATA code : YHU


CYHU - Montréal Saint-Hubert

CURRENT METAR :
  • 041500Z AUTO 24006KT 200V260 9SM CLR 23/15 A3014 RMK SLP208 DENSITY ALT 800FT

EXPIRED METARs :
  • 041400Z AUTO 21009KT 9SM CLR 21/15 A3013 RMK SLP203 DENSITY ALT 600FT
  • 041300Z AUTO 23007KT 9SM CLR 20/15 A3013 RMK SLP203 DENSITY ALT 500FT

TAF TAF CYHU
Valid from the 04 at 12:00 until the 05 at 12:00 UTC


041143Z 0412/0512 20005KT P6SM SKC
FM041500 22008KT P6SM SCT060
FM050000 19006KT P6SM FEW070 RMK FCST BASED ON AUTO OBS. NXT FCST BY 041800Z
CZUL FIR / North America



MET'MAP, your aeronautical weather chart ! - Copyright ORBIFLY December 2007 - Disclaimer

ORBIFLY MET'MAP TEAM :

Programming & Development : Alexandra Zaïnal
Concept & original design : Baudouin d'Aumeries
Assistance for programming : Marc-Olivier Méhu
Technical & hardware support : Manuel Goepfert

Contact : metmap@orbifly.com




SOURCES & CREDITS :

   NOAA